Time;durP1;ratioP1;P1;durP2;ratioP2;P2;SDS_P1;SDS_P2;PMS_P1;PMS_P2;Temp;Humidity;BMP_temperature;BMP_pressure;BME280_temperature;BME280_humidity;BME280_pressure;Samples;Min_cycle;Max_cycle;Signal;HPM_P1;HPM_P2
2023/03/13 00:01:40;;;;;;;10.27;6.63;;;13.60;1.00;;;;;;4937349;29;20083;-63
2023/03/13 00:04:06;;;;;;;10.80;6.32;;;13.70;1.00;;;;;;4935969;29;20032;-63
2023/03/13 00:06:34;;;;;;;9.55;5.85;;;13.60;1.00;;;;;;4936008;29;20031;-63
2023/03/13 00:09:02;;;;;;;11.85;6.45;;;13.60;1.00;;;;;;4936338;29;20106;-64
2023/03/13 00:11:28;;;;;;;9.55;5.65;;;13.60;1.00;;;;;;4937314;29;20067;-64
2023/03/13 00:13:58;;;;;;;10.10;6.30;;;13.60;1.00;;;;;;4936702;29;20032;-63
2023/03/13 00:16:25;;;;;;;6.93;5.68;;;13.50;1.00;;;;;;4937349;29;20047;-63
2023/03/13 00:18:52;;;;;;;9.10;5.90;;;13.50;1.00;;;;;;4935115;29;20023;-63
2023/03/13 00:21:20;;;;;;;9.32;5.95;;;13.60;1.00;;;;;;4933816;29;20023;-63
2023/03/13 00:23:46;;;;;;;9.82;6.05;;;13.60;1.00;;;;;;4936944;29;20059;-64
2023/03/13 00:26:15;;;;;;;10.77;5.88;;;13.50;1.00;;;;;;4920860;29;20132;-64
2023/03/13 00:28:41;;;;;;;10.15;5.18;;;13.50;1.00;;;;;;4933442;29;20055;-63
2023/03/13 00:31:09;;;;;;;6.72;4.90;;;13.50;1.00;;;;;;4936130;29;20365;-64
2023/03/13 00:33:38;;;;;;;7.80;5.30;;;13.50;1.00;;;;;;4936205;29;20393;-64
2023/03/13 00:36:06;;;;;;;10.45;5.03;;;13.50;1.00;;;;;;4936617;29;20040;-64
2023/03/13 00:38:33;;;;;;;10.65;5.35;;;13.50;1.00;;;;;;4936594;29;20024;-64
2023/03/13 00:41:07;;;;;;;10.75;5.50;;;13.50;1.00;;;;;;4933011;29;20484;-64
2023/03/13 00:43:33;;;;;;;8.68;5.85;;;13.50;1.00;;;;;;4936610;29;20071;-64
2023/03/13 00:46:00;;;;;;;10.68;5.28;;;13.50;1.00;;;;;;4935971;29;20466;-64
2023/03/13 00:48:25;;;;;;;7.63;4.55;;;13.50;1.00;;;;;;4931440;29;20024;-64
2023/03/13 00:50:51;;;;;;;9.88;4.82;;;13.50;1.00;;;;;;4919442;29;20389;-64
2023/03/13 00:53:17;;;;;;;7.85;5.20;;;13.40;1.00;;;;;;4916422;29;20114;-64
2023/03/13 00:55:53;;;;;;;11.90;5.00;;;13.40;1.00;;;;;;4927122;29;20044;-64
2023/03/13 00:58:19;;;;;;;7.55;4.28;;;13.40;1.00;;;;;;4926035;29;20032;-64
2023/03/13 01:00:45;;;;;;;6.82;4.28;;;13.40;1.00;;;;;;4924609;29;20024;-65
2023/03/13 01:03:10;;;;;;;13.48;5.00;;;13.40;1.00;;;;;;4926956;29;20031;-64
2023/03/13 01:05:36;;;;;;;9.43;4.32;;;13.40;1.00;;;;;;4936195;29;20055;-64
2023/03/13 01:08:02;;;;;;;11.85;4.53;;;13.30;1.00;;;;;;4930264;29;20416;-64
2023/03/13 01:10:28;;;;;;;10.10;4.57;;;13.40;1.00;;;;;;4928190;29;20118;-64
2023/03/13 01:12:53;;;;;;;8.43;4.68;;;13.30;1.00;;;;;;4917456;29;20080;-64
2023/03/13 01:15:19;;;;;;;7.80;4.03;;;13.30;1.00;;;;;;4926804;29;20130;-64
2023/03/13 01:17:45;;;;;;;7.45;4.10;;;13.40;1.00;;;;;;4917180;29;20024;-64
2023/03/13 01:20:12;;;;;;;11.05;4.40;;;13.40;1.00;;;;;;4920534;29;20035;-64
2023/03/13 01:22:38;;;;;;;10.48;4.30;;;13.40;1.00;;;;;;4923330;29;20075;-64
2023/03/13 01:25:04;;;;;;;8.40;4.22;;;13.40;1.00;;;;;;4923522;29;20032;-64
2023/03/13 01:27:30;;;;;;;5.78;4.13;;;13.40;1.00;;;;;;4918265;29;20031;-64
2023/03/13 01:29:56;;;;;;;9.88;4.57;;;13.40;1.00;;;;;;4924257;29;20439;-64
2023/03/13 01:32:22;;;;;;;6.18;4.18;;;13.40;1.00;;;;;;4929910;29;20032;-64
2023/03/13 01:34:47;;;;;;;7.95;3.88;;;13.40;1.00;;;;;;4916210;29;20052;-64
2023/03/13 01:37:13;;;;;;;8.82;3.75;;;13.30;1.00;;;;;;4917434;29;20463;-64
2023/03/13 01:39:40;;;;;;;7.60;3.65;;;13.30;1.00;;;;;;4933855;29;20035;-64
2023/03/13 01:42:05;;;;;;;10.07;4.85;;;13.30;1.00;;;;;;4924914;29;20036;-64
2023/03/13 01:44:50;;;;;;;7.25;4.15;;;13.30;1.00;;;;;;4921281;29;20363;-64
2023/03/13 01:47:16;;;;;;;8.60;4.53;;;13.30;1.00;;;;;;4925805;29;20553;-65
2023/03/13 01:49:43;;;;;;;7.65;3.65;;;13.30;1.00;;;;;;4926955;29;20147;-64
2023/03/13 01:52:24;;;;;;;8.00;3.75;;;13.30;1.00;;;;;;4926045;29;20032;-64
2023/03/13 01:55:04;;;;;;;6.95;3.63;;;13.30;1.00;;;;;;4926151;29;20067;-63
2023/03/13 01:57:53;;;;;;;7.50;3.95;;;13.40;1.00;;;;;;4924713;29;20482;-65
2023/03/13 02:00:32;;;;;;;9.38;3.50;;;13.30;1.00;;;;;;4919819;29;20034;-65
2023/03/13 02:03:09;;;;;;;10.38;3.50;;;13.30;1.00;;;;;;4930024;29;20462;-64
2023/03/13 02:05:36;;;;;;;7.32;3.70;;;13.30;1.00;;;;;;4921120;29;20036;-64
2023/03/13 02:08:01;;;;;;;7.05;3.58;;;13.30;1.00;;;;;;4916693;29;20039;-64
2023/03/13 02:10:29;;;;;;;10.13;3.63;;;13.30;1.00;;;;;;4928460;29;20032;-65
2023/03/13 02:12:56;;;;;;;7.93;4.20;;;13.20;1.00;;;;;;4935608;29;20039;-64
2023/03/13 02:15:24;;;;;;;5.40;3.00;;;13.20;1.00;;;;;;4923701;29;20067;-64
2023/03/13 02:17:51;;;;;;;9.18;3.97;;;13.30;1.00;;;;;;4935066;29;20036;-64
2023/03/13 02:20:21;;;;;;;6.30;3.63;;;13.20;1.00;;;;;;4927241;29;20437;-64
2023/03/13 02:23:02;;;;;;;8.35;2.75;;;13.20;1.00;;;;;;4923969;29;20110;-64
2023/03/13 02:25:48;;;;;;;8.07;3.22;;;13.20;1.00;;;;;;4924309;29;20115;-64
2023/03/13 02:28:22;;;;;;;7.82;3.40;;;13.30;1.00;;;;;;4922244;29;20050;-64
2023/03/13 02:30:50;;;;;;;6.93;3.67;;;13.30;1.00;;;;;;4931717;29;20516;-64
2023/03/13 02:33:18;;;;;;;8.10;3.17;;;13.30;1.00;;;;;;4922813;29;20499;-65
2023/03/13 02:35:46;;;;;;;5.85;3.58;;;13.20;1.00;;;;;;4918714;29;20116;-64
2023/03/13 02:38:18;;;;;;;4.95;3.65;;;13.30;1.00;;;;;;4931395;29;20024;-65
2023/03/13 02:40:46;;;;;;;5.03;3.03;;;13.30;1.00;;;;;;4931982;29;20433;-64
2023/03/13 02:43:33;;;;;;;7.72;3.20;;;13.30;1.00;;;;;;4922814;29;20470;-65
2023/03/13 02:46:09;;;;;;;4.60;2.63;;;13.20;1.00;;;;;;4934986;29;20040;-64
2023/03/13 02:48:44;;;;;;;5.32;2.88;;;13.10;1.00;;;;;;4921158;29;20028;-65
2023/03/13 02:51:13;;;;;;;3.85;2.67;;;13.10;1.00;;;;;;4922983;29;20031;-64
2023/03/13 02:53:40;;;;;;;9.45;3.42;;;13.10;1.00;;;;;;4922799;29;20060;-64
2023/03/13 02:56:06;;;;;;;8.80;3.40;;;13.10;1.00;;;;;;4937526;29;20405;-65
2023/03/13 02:58:38;;;;;;;11.25;3.30;;;13.10;1.00;;;;;;4936703;29;20043;-65
2023/03/13 03:01:06;;;;;;;4.50;3.00;;;13.10;1.00;;;;;;4937297;29;20023;-65
2023/03/13 03:03:34;;;;;;;6.50;3.13;;;13.10;1.00;;;;;;4931720;29;20528;-65
2023/03/13 03:06:00;;;;;;;5.45;3.20;;;13.10;1.00;;;;;;4937456;29;20027;-65
2023/03/13 03:08:26;;;;;;;5.65;2.97;;;13.10;1.00;;;;;;4931115;29;20032;-65
2023/03/13 03:10:52;;;;;;;6.13;2.70;;;13.10;1.00;;;;;;4921005;29;20036;-65
2023/03/13 03:13:17;;;;;;;4.90;3.08;;;13.10;1.00;;;;;;4937273;29;20398;-65
2023/03/13 03:15:43;;;;;;;6.63;3.60;;;13.10;1.00;;;;;;4937504;29;20036;-65
2023/03/13 03:18:09;;;;;;;7.25;3.78;;;13.10;1.00;;;;;;4936872;29;20029;-65
2023/03/13 03:20:34;;;;;;;6.82;3.10;;;13.10;1.00;;;;;;4928492;29;20068;-64
2023/03/13 03:23:00;;;;;;;6.50;3.25;;;13.10;1.00;;;;;;4932430;29;20398;-65
2023/03/13 03:25:25;;;;;;;7.13;3.38;;;13.10;1.00;;;;;;4927394;29;20032;-64
2023/03/13 03:27:51;;;;;;;7.97;3.50;;;13.10;1.00;;;;;;4931030;29;20031;-65
2023/03/13 03:30:17;;;;;;;10.73;3.53;;;13.10;1.00;;;;;;4935649;29;20028;-65
2023/03/13 03:32:42;;;;;;;6.88;3.10;;;13.00;1.00;;;;;;4937486;29;20123;-65
2023/03/13 03:35:08;;;;;;;7.00;3.35;;;13.00;1.00;;;;;;4935105;29;20115;-65
2023/03/13 03:37:34;;;;;;;4.88;2.75;;;13.10;1.00;;;;;;4921748;29;20123;-64
2023/03/13 03:39:59;;;;;;;5.50;3.60;;;13.10;1.00;;;;;;4930016;29;20123;-64
2023/03/13 03:42:25;;;;;;;6.65;3.20;;;13.10;1.00;;;;;;4918843;29;20503;-64
2023/03/13 03:44:51;;;;;;;7.80;3.80;;;13.00;1.00;;;;;;4924633;29;20030;-64
2023/03/13 03:47:16;;;;;;;6.25;3.20;;;12.90;1.00;;;;;;4919434;29;20036;-64
2023/03/13 03:49:42;;;;;;;4.22;2.55;;;12.90;1.00;;;;;;4928691;29;20046;-64
2023/03/13 03:52:07;;;;;;;7.00;3.03;;;12.90;1.00;;;;;;4921193;29;20032;-64
2023/03/13 03:54:33;;;;;;;6.18;2.80;;;12.90;1.00;;;;;;4923258;29;20047;-64
2023/03/13 03:56:59;;;;;;;6.40;3.33;;;12.80;1.00;;;;;;4935446;29;20048;-64
2023/03/13 03:59:25;;;;;;;8.25;3.60;;;12.80;1.00;;;;;;4934600;29;20039;-64
2023/03/13 04:01:51;;;;;;;7.18;3.33;;;12.90;1.00;;;;;;4925292;29;20145;-64
2023/03/13 04:04:16;;;;;;;6.95;2.60;;;12.90;1.00;;;;;;4934915;29;20437;-64
2023/03/13 04:06:42;;;;;;;8.90;3.22;;;12.90;1.00;;;;;;4926638;29;20035;-64
2023/03/13 04:09:08;;;;;;;5.65;3.13;;;12.90;1.00;;;;;;4931556;29;20034;-64
2023/03/13 04:11:33;;;;;;;4.35;2.58;;;12.90;1.00;;;;;;4918582;29;20359;-64
2023/03/13 04:13:59;;;;;;;6.43;3.22;;;12.90;1.00;;;;;;4919158;29;20103;-64
2023/03/13 04:16:25;;;;;;;9.52;3.97;;;12.90;1.00;;;;;;4927716;29;20067;-65
2023/03/13 04:18:50;;;;;;;5.82;3.50;;;12.90;1.00;;;;;;4927791;29;20058;-64
2023/03/13 04:21:16;;;;;;;7.40;3.15;;;12.90;1.00;;;;;;4922349;29;20027;-64
2023/03/13 04:23:42;;;;;;;5.55;3.17;;;12.90;1.00;;;;;;4926919;29;20107;-65
2023/03/13 04:26:07;;;;;;;5.90;3.30;;;12.80;1.00;;;;;;4923681;29;20067;-64
2023/03/13 04:28:33;;;;;;;7.55;3.63;;;12.90;1.00;;;;;;4929856;29;20430;-65
2023/03/13 04:31:00;;;;;;;12.80;4.20;;;12.90;1.00;;;;;;4922893;29;20091;-65
2023/03/13 04:33:26;;;;;;;7.15;4.13;;;12.90;1.00;;;;;;4917993;29;20025;-64
2023/03/13 04:35:51;;;;;;;9.70;4.20;;;12.90;1.00;;;;;;4923849;29;20048;-65
2023/03/13 04:38:17;;;;;;;6.57;4.32;;;12.80;1.00;;;;;;4918047;29;20091;-65
2023/03/13 04:40:44;;;;;;;6.97;4.38;;;12.90;1.00;;;;;;4924701;29;20039;-65
2023/03/13 04:43:10;;;;;;;7.43;4.47;;;12.90;1.00;;;;;;4918954;29;20036;-65
2023/03/13 04:45:35;;;;;;;6.15;4.53;;;12.90;1.00;;;;;;4922631;29;20367;-65
2023/03/13 04:48:01;;;;;;;7.78;4.93;;;12.80;1.00;;;;;;4923136;29;20466;-65
2023/03/13 04:50:27;;;;;;;7.32;4.65;;;12.80;1.00;;;;;;4917686;29;20039;-65
2023/03/13 04:52:52;;;;;;;7.60;4.85;;;12.80;1.00;;;;;;4917535;29;20064;-64
2023/03/13 04:55:19;;;;;;;7.65;4.32;;;12.80;1.00;;;;;;4927965;29;20039;-65
2023/03/13 04:57:44;;;;;;;9.18;5.10;;;12.80;1.00;;;;;;4933209;29;20109;-65
2023/03/13 05:00:10;;;;;;;9.57;5.18;;;12.90;1.00;;;;;;4931172;29;20520;-64
2023/03/13 05:02:36;;;;;;;8.00;4.75;;;12.90;1.00;;;;;;4928966;29;20027;-65
2023/03/13 05:05:02;;;;;;;6.38;4.30;;;12.90;1.00;;;;;;4934065;29;20038;-65
2023/03/13 05:07:28;;;;;;;6.90;4.78;;;12.90;1.00;;;;;;4936403;29;20055;-65
2023/03/13 05:09:53;;;;;;;9.57;4.88;;;12.90;1.00;;;;;;4935034;29;20031;-65
2023/03/13 05:12:19;;;;;;;9.20;3.78;;;12.90;1.00;;;;;;4935714;29;20024;-64
2023/03/13 05:14:45;;;;;;;8.82;4.75;;;12.90;1.00;;;;;;4934581;29;20043;-65
2023/03/13 05:17:11;;;;;;;9.60;5.20;;;12.90;1.00;;;;;;4936033;29;20401;-64
2023/03/13 05:19:37;;;;;;;9.60;5.38;;;12.90;1.00;;;;;;4935499;29;20024;-65
2023/03/13 05:22:03;;;;;;;9.27;5.63;;;12.90;1.00;;;;;;4936190;29;20031;-66
2023/03/13 05:24:28;;;;;;;7.53;4.88;;;12.90;1.00;;;;;;4935450;29;20039;-65
2023/03/13 05:26:54;;;;;;;7.63;4.88;;;13.00;1.00;;;;;;4935997;29;20393;-65
2023/03/13 05:29:20;;;;;;;7.88;4.15;;;12.90;1.00;;;;;;4934221;29;20051;-65
2023/03/13 05:31:45;;;;;;;8.52;4.78;;;13.00;1.00;;;;;;4925017;29;20115;-65
2023/03/13 05:34:11;;;;;;;6.70;4.50;;;13.00;1.00;;;;;;4922360;29;20090;-65
2023/03/13 05:36:37;;;;;;;9.65;5.05;;;13.00;1.00;;;;;;4934971;29;20047;-65
2023/03/13 05:39:03;;;;;;;8.02;4.50;;;13.00;1.00;;;;;;4935142;29;20028;-65
2023/03/13 05:41:28;;;;;;;9.15;4.50;;;13.00;1.00;;;;;;4935605;29;20068;-68
2023/03/13 05:43:54;;;;;;;10.32;5.20;;;13.00;1.00;;;;;;4935274;29;20027;-65
2023/03/13 05:46:20;;;;;;;11.27;5.00;;;13.00;1.00;;;;;;4934117;29;20105;-65
2023/03/13 05:48:45;;;;;;;10.35;4.75;;;12.80;1.00;;;;;;4935929;29;20528;-65
2023/03/13 05:51:12;;;;;;;5.80;4.53;;;12.90;1.00;;;;;;4935381;29;20410;-65
2023/03/13 05:53:37;;;;;;;6.53;4.40;;;12.80;1.00;;;;;;4934220;29;20063;-66
2023/03/13 05:56:03;;;;;;;8.38;4.40;;;12.80;1.00;;;;;;4934004;29;20043;-65
2023/03/13 05:58:29;;;;;;;6.90;3.88;;;12.80;1.00;;;;;;4935021;29;20326;-65
2023/03/13 06:00:55;;;;;;;9.80;4.25;;;12.80;1.00;;;;;;4933471;29;20035;-65
2023/03/13 06:03:20;;;;;;;9.48;4.93;;;12.80;1.00;;;;;;4935613;29;20032;-65
2023/03/13 06:05:46;;;;;;;10.73;5.72;;;12.80;1.00;;;;;;4934835;29;20063;-66
2023/03/13 06:08:12;;;;;;;8.82;4.70;;;12.80;1.00;;;;;;4934258;29;20040;-65
2023/03/13 06:10:37;;;;;;;8.23;4.50;;;12.80;1.00;;;;;;4935078;29;20071;-65
2023/03/13 06:13:03;;;;;;;10.57;4.80;;;12.80;1.00;;;;;;4935402;29;20024;-65
2023/03/13 06:15:28;;;;;;;8.80;4.20;;;12.80;1.00;;;;;;4933391;29;20044;-66
2023/03/13 06:17:54;;;;;;;10.10;4.28;;;12.80;1.00;;;;;;4935622;29;20042;-66
2023/03/13 06:20:21;;;;;;;6.28;4.10;;;12.70;1.00;;;;;;4935861;29;20039;-65
2023/03/13 06:22:46;;;;;;;7.32;4.40;;;12.80;1.00;;;;;;4939279;29;20354;-65
2023/03/13 06:25:12;;;;;;;6.50;4.05;;;12.80;1.00;;;;;;4938288;29;20035;-66
2023/03/13 06:27:40;;;;;;;10.82;5.22;;;12.80;1.00;;;;;;4938938;29;20039;-65
2023/03/13 06:30:08;;;;;;;7.65;4.28;;;12.80;1.00;;;;;;4938302;29;20057;-66
2023/03/13 06:32:33;;;;;;;7.85;4.35;;;12.90;1.00;;;;;;4939059;29;20115;-65
2023/03/13 06:34:59;;;;;;;9.23;4.32;;;12.90;1.00;;;;;;4937702;29;20122;-65
2023/03/13 06:37:24;;;;;;;9.82;4.40;;;12.90;1.00;;;;;;4939115;29;20107;-66
2023/03/13 06:39:50;;;;;;;10.20;4.78;;;12.80;1.00;;;;;;4938457;29;20055;-66
2023/03/13 06:42:16;;;;;;;8.43;4.95;;;12.90;1.00;;;;;;4939211;29;20031;-66
2023/03/13 06:44:41;;;;;;;8.05;4.40;;;12.90;1.00;;;;;;4937750;29;20397;-66
2023/03/13 06:47:07;;;;;;;10.68;4.90;;;12.90;1.00;;;;;;4938123;29;20027;-66
2023/03/13 06:49:33;;;;;;;10.45;5.43;;;12.90;1.00;;;;;;4937022;29;20494;-66
2023/03/13 06:51:58;;;;;;;11.10;5.32;;;12.90;1.00;;;;;;4938614;29;20027;-66
2023/03/13 06:54:24;;;;;;;10.43;5.15;;;12.90;1.00;;;;;;4938024;29;20047;-66
2023/03/13 06:56:50;;;;;;;6.35;3.65;;;12.90;1.00;;;;;;4938598;29;20052;-66
2023/03/13 06:59:16;;;;;;;7.70;4.07;;;13.00;1.00;;;;;;4936141;29;20035;-66
2023/03/13 07:01:41;;;;;;;9.65;4.40;;;13.00;1.00;;;;;;4938425;29;20036;-66
2023/03/13 07:04:13;;;;;;;8.13;5.00;;;12.90;1.00;;;;;;4938099;29;20038;-66
2023/03/13 07:06:39;;;;;;;8.65;4.30;;;13.00;1.00;;;;;;4938440;29;20036;-66
2023/03/13 07:09:04;;;;;;;6.78;4.43;;;13.00;1.00;;;;;;4937396;29;20032;-66
2023/03/13 07:11:30;;;;;;;11.05;5.57;;;13.00;1.00;;;;;;4937475;29;20019;-66
2023/03/13 07:14:00;;;;;;;10.80;5.40;;;13.00;1.00;;;;;;4937255;29;20032;-67
2023/03/13 07:16:26;;;;;;;8.75;5.03;;;13.10;1.00;;;;;;4937726;29;20118;-67
2023/03/13 07:18:51;;;;;;;9.98;5.68;;;13.00;1.00;;;;;;4933179;29;20062;-67
2023/03/13 07:21:17;;;;;;;14.50;5.57;;;13.00;1.00;;;;;;4919263;29;20040;-66
2023/03/13 07:23:43;;;;;;;13.40;6.25;;;13.00;1.00;;;;;;4935065;29;20111;-66
2023/03/13 07:26:14;;;;;;;7.70;4.72;;;13.10;1.00;;;;;;4927089;29;20482;-66
2023/03/13 07:28:40;;;;;;;8.98;4.97;;;13.20;1.00;;;;;;4921587;29;20526;-67
2023/03/13 07:31:10;;;;;;;12.23;5.40;;;13.20;1.00;;;;;;4934774;29;20027;-67
2023/03/13 07:33:35;;;;;;;8.07;4.90;;;13.30;1.00;;;;;;4935185;29;20148;-66
2023/03/13 07:36:01;;;;;;;14.93;5.78;;;13.30;1.00;;;;;;4925944;29;20441;-67
2023/03/13 07:38:27;;;;;;;13.32;5.22;;;13.40;1.00;;;;;;4918848;29;20577;-65
2023/03/13 07:40:57;;;;;;;11.98;6.25;;;13.40;1.00;;;;;;4926250;29;20060;-66
2023/03/13 07:43:24;;;;;;;10.82;6.10;;;13.50;1.00;;;;;;4918834;29;20026;-66
2023/03/13 07:46:00;;;;;;;8.93;5.68;;;13.50;1.00;;;;;;4929881;29;20488;-66
2023/03/13 07:48:30;;;;;;;9.65;5.88;;;13.60;1.00;;;;;;4928407;29;20024;-66
2023/03/13 07:50:56;;;;;;;10.82;5.95;;;13.60;1.00;;;;;;4919838;29;20031;-67
2023/03/13 07:53:22;;;;;;;10.50;5.40;;;13.60;1.00;;;;;;4926386;29;20496;-66
2023/03/13 07:55:58;;;;;;;10.73;5.57;;;13.70;1.00;;;;;;4936250;29;20046;-66
2023/03/13 07:58:25;;;;;;;6.20;4.50;;;13.70;1.00;;;;;;4918518;29;20454;-66
2023/03/13 08:00:51;;;;;;;9.32;5.38;;;13.80;1.00;;;;;;4928588;29;20043;-63
2023/03/13 08:03:17;;;;;;;10.15;5.25;;;13.90;1.00;;;;;;4918436;29;20583;-63
2023/03/13 08:05:43;;;;;;;7.82;4.60;;;13.80;1.00;;;;;;4919905;29;20035;-63
2023/03/13 08:08:09;;;;;;;12.00;5.68;;;13.80;1.00;;;;;;4929763;29;20412;-63
2023/03/13 08:10:35;;;;;;;9.75;5.13;;;13.80;1.00;;;;;;4930277;29;20114;-64
2023/03/13 08:13:00;;;;;;;7.95;5.28;;;13.80;1.00;;;;;;4919004;29;20039;-63
2023/03/13 08:15:27;;;;;;;8.63;5.10;;;13.90;1.00;;;;;;4924281;29;20028;-63
2023/03/13 08:17:56;;;;;;;9.23;4.75;;;13.90;1.00;;;;;;4923684;29;20091;-64
2023/03/13 08:20:22;;;;;;;7.85;3.92;;;14.00;1.00;;;;;;4927725;29;20036;-63
2023/03/13 08:22:50;;;;;;;9.82;5.10;;;14.20;1.00;;;;;;4919603;29;20382;-64
2023/03/13 08:25:16;;;;;;;8.25;4.03;;;14.30;1.00;;;;;;4928540;29;20375;-64
2023/03/13 08:27:42;;;;;;;9.02;3.67;;;14.30;1.00;;;;;;4918423;29;20043;-64
2023/03/13 08:30:09;;;;;;;7.38;4.07;;;14.40;1.00;;;;;;4923398;29;20032;-63
2023/03/13 08:32:35;;;;;;;9.27;4.35;;;14.40;1.00;;;;;;4930560;29;20091;-63
2023/03/13 08:35:02;;;;;;;11.25;4.57;;;14.40;1.00;;;;;;4920248;29;20043;-63
2023/03/13 08:37:27;;;;;;;10.45;4.32;;;14.50;1.00;;;;;;4927599;29;20062;-63
2023/03/13 08:39:55;;;;;;;11.70;4.50;;;14.40;1.00;;;;;;4935164;29;20024;-63
2023/03/13 08:42:21;;;;;;;4.38;3.28;;;14.40;1.00;;;;;;4917624;29;20039;-63
2023/03/13 08:44:47;;;;;;;11.50;4.57;;;14.50;1.00;;;;;;4925852;29;20023;-63
2023/03/13 08:47:13;;;;;;;9.35;4.20;;;14.50;1.00;;;;;;4917924;29;20189;-63
2023/03/13 08:49:38;;;;;;;6.70;4.80;;;14.50;1.00;;;;;;4924225;29;20023;-63
2023/03/13 08:52:05;;;;;;;6.18;4.45;;;14.50;1.00;;;;;;4920225;29;20071;-63
2023/03/13 08:54:32;;;;;;;8.40;5.07;;;14.60;1.00;;;;;;4933137;29;20054;-64
2023/03/13 08:56:58;;;;;;;9.80;4.93;;;14.60;1.00;;;;;;4921510;29;20040;-64
2023/03/13 08:59:25;;;;;;;7.65;4.60;;;14.70;1.00;;;;;;4918838;29;20038;-63
2023/03/13 09:01:51;;;;;;;9.55;5.45;;;14.70;1.00;;;;;;4932604;29;20035;-63
2023/03/13 09:04:17;;;;;;;8.70;4.53;;;14.80;1.00;;;;;;4924062;29;20024;-64
2023/03/13 09:06:43;;;;;;;8.35;4.68;;;14.90;1.00;;;;;;4925122;29;20096;-64
2023/03/13 09:09:11;;;;;;;8.18;4.75;;;14.90;1.00;;;;;;4928228;29;20039;-64
2023/03/13 09:11:40;;;;;;;10.65;5.25;;;15.00;1.00;;;;;;4935314;29;20497;-63
2023/03/13 09:14:08;;;;;;;7.40;5.10;;;15.00;1.00;;;;;;4936129;29;20095;-63
2023/03/13 09:16:34;;;;;;;8.50;4.72;;;15.10;1.00;;;;;;4934678;29;20067;-63
2023/03/13 09:19:00;;;;;;;8.27;4.70;;;15.10;1.00;;;;;;4935123;29;20590;-63
2023/03/13 09:21:34;;;;;;;10.73;5.20;;;15.10;1.00;;;;;;4934533;29;20126;-63
2023/03/13 09:24:00;;;;;;;9.38;5.30;;;15.30;1.00;;;;;;4922460;29;20119;-63
2023/03/13 09:26:26;;;;;;;10.63;5.35;;;15.40;1.00;;;;;;4935537;29;20393;-63
2023/03/13 09:28:52;;;;;;;11.52;5.35;;;15.40;1.00;;;;;;4934762;29;20490;-63
2023/03/13 09:31:27;;;;;;;6.97;4.95;;;15.40;1.00;;;;;;4935579;29;20598;-63
2023/03/13 09:33:53;;;;;;;;;;;15.40;1.00;;;;;;4935576;29;20024;-65
2023/03/13 09:36:19;;;;;;;8.40;4.68;;;15.40;1.00;;;;;;4935721;29;19926;-64
2023/03/13 09:38:45;;;;;;;6.80;4.95;;;15.30;1.00;;;;;;4934822;29;20032;-64
2023/03/13 09:41:21;;;;;;;10.20;4.90;;;15.30;1.00;;;;;;4935591;29;20076;-64
2023/03/13 09:44:28;;;;;;;11.52;5.13;;;15.30;1.00;;;;;;4935211;29;20028;-64
2023/03/13 09:46:59;;;;;;;9.98;5.97;;;15.30;1.00;;;;;;4891655;29;20079;-64
2023/03/13 09:49:50;;;;;;;10.25;5.50;;;15.30;1.00;;;;;;4891935;29;20084;-64
2023/03/13 09:52:21;;;;;;;9.93;5.57;;;15.20;1.00;;;;;;4919460;29;20040;-63
2023/03/13 09:55:11;;;;;;;8.15;4.72;;;15.10;1.00;;;;;;4933911;29;20494;-63
2023/03/13 09:57:48;;;;;;;6.10;4.82;;;15.10;1.00;;;;;;4935810;29;20493;-63
2023/03/13 10:00:21;;;;;;;11.77;5.45;;;15.10;1.00;;;;;;4934715;29;20036;-63
2023/03/13 10:03:03;;;;;;;11.13;5.32;;;15.20;1.00;;;;;;4935688;29;20036;-64
2023/03/13 10:05:30;;;;;;;9.18;5.53;;;15.30;1.00;;;;;;4923585;29;20028;-64
2023/03/13 10:08:16;;;;;;;8.55;5.60;;;15.40;1.00;;;;;;4921237;29;20036;-64
2023/03/13 10:10:54;;;;;;;10.13;5.63;;;15.50;1.00;;;;;;4930343;29;20095;-65
2023/03/13 10:13:49;;;;;;;11.52;6.03;;;15.60;1.00;;;;;;4932376;29;20070;-64
2023/03/13 10:16:44;;;;;;;10.50;5.72;;;15.70;1.00;;;;;;4923554;29;20036;-64
2023/03/13 10:19:15;;;;;;;;;;;15.70;1.00;;;;;;4924377;29;20036;-65
2023/03/13 10:21:43;;;;;;;8.15;6.28;;;15.70;1.00;;;;;;4935277;29;20439;-65
2023/03/13 10:24:36;;;;;;;10.23;6.55;;;15.70;1.00;;;;;;4935369;29;20484;-64
2023/03/13 10:27:02;;;;;;;12.10;6.65;;;15.80;1.00;;;;;;4932807;29;20481;-64
2023/03/13 10:29:30;;;;;;;12.52;5.95;;;15.90;1.00;;;;;;4933873;29;20020;-64
2023/03/13 10:32:00;;;;;;;8.82;6.32;;;15.80;1.00;;;;;;4935059;29;20036;-64
2023/03/13 10:34:44;;;;;;;9.82;6.72;;;15.80;1.00;;;;;;4932268;29;20019;-64
2023/03/13 10:37:14;;;;;;;13.00;7.53;;;15.80;1.00;;;;;;4922012;29;20108;-64
2023/03/13 10:39:40;;;;;;;11.63;6.82;;;16.00;1.00;;;;;;4934559;29;20110;-64
2023/03/13 10:42:10;;;;;;;11.30;6.30;;;16.10;1.00;;;;;;4935176;29;20103;-65
2023/03/13 10:44:36;;;;;;;10.40;7.13;;;16.10;1.00;;;;;;4934388;29;20159;-65
2023/03/13 10:47:03;;;;;;;10.05;6.65;;;16.30;1.00;;;;;;4922432;29;20036;-65
2023/03/13 10:49:30;;;;;;;8.00;6.00;;;16.30;1.00;;;;;;4934312;29;20035;-65
2023/03/13 10:51:59;;;;;;;10.43;6.72;;;16.30;1.00;;;;;;4935147;29;20086;-65
2023/03/13 10:54:29;;;;;;;11.63;5.80;;;16.40;1.00;;;;;;4933481;29;20047;-65
2023/03/13 10:57:17;;;;;;;9.57;6.60;;;16.50;1.00;;;;;;4929644;29;20040;-64
2023/03/13 10:59:51;;;;;;;9.80;6.28;;;16.50;1.00;;;;;;4929456;29;20025;-65
2023/03/13 11:02:37;;;;;;;12.50;6.32;;;16.50;1.00;;;;;;4927493;29;20024;-64
2023/03/13 11:05:23;;;;;;;11.05;6.85;;;16.40;1.00;;;;;;4933937;29;20032;-65
2023/03/13 11:07:49;;;;;;;10.98;6.70;;;16.40;1.00;;;;;;4935885;29;20516;-64
2023/03/13 11:10:24;;;;;;;9.55;6.47;;;16.40;1.00;;;;;;4937304;29;20031;-65
2023/03/13 11:12:51;;;;;;;;;;;16.40;1.00;;;;;;4938563;29;20086;-65
2023/03/13 11:15:37;;;;;;;11.02;6.95;;;16.30;1.00;;;;;;4936827;29;19914;-65
2023/03/13 11:18:02;;;;;;;7.75;6.35;;;16.40;1.00;;;;;;4936421;29;20103;-65
2023/03/13 11:20:38;;;;;;;12.88;6.85;;;16.50;1.00;;;;;;4937362;29;20413;-64
2023/03/13 11:23:12;;;;;;;15.23;6.68;;;16.40;1.00;;;;;;4933433;29;20087;-69
2023/03/13 11:25:49;;;;;;;10.07;6.95;;;16.40;1.00;;;;;;4937583;29;20474;-70
2023/03/13 11:28:44;;;;;;;14.18;7.03;;;16.50;1.00;;;;;;4938099;29;20039;-70
2023/03/13 11:31:33;;;;;;;12.07;6.93;;;16.70;1.00;;;;;;4927746;29;20394;-70
2023/03/13 11:34:25;;;;;;;11.07;6.60;;;16.80;1.00;;;;;;4926738;29;20048;-70
2023/03/13 11:37:01;;;;;;;10.07;6.47;;;16.70;1.00;;;;;;4936752;29;20054;-71
2023/03/13 11:39:48;;;;;;;10.88;6.38;;;16.70;1.00;;;;;;4939399;29;20441;-70
2023/03/13 11:42:46;;;;;;;10.40;6.43;;;16.70;1.00;;;;;;4926067;29;20066;-70
2023/03/13 11:45:35;;;;;;;10.77;6.20;;;16.70;1.00;;;;;;4919066;29;20043;-70
2023/03/13 11:48:14;;;;;;;9.65;6.15;;;16.90;1.00;;;;;;4937207;29;20035;-70
2023/03/13 11:50:56;;;;;;;9.38;6.50;;;17.10;1.00;;;;;;4924324;29;20553;-70
2023/03/13 11:54:10;;;;;;;13.45;8.75;;;17.40;1.00;;;;;;4923746;29;20079;-70
2023/03/13 11:56:43;;;;;;;13.05;7.57;;;17.50;1.00;;;;;;4839410;29;20052;-70
2023/03/13 11:59:32;;;;;;;13.13;7.20;;;17.70;1.00;;;;;;4830503;29;20160;-69
2023/03/13 12:02:01;;;;;;;10.57;6.13;;;17.90;1.00;;;;;;4888713;29;20048;-69
2023/03/13 12:04:34;;;;;;;10.70;6.95;;;18.20;1.00;;;;;;4918137;29;20063;-69
2023/03/13 12:07:34;;;;;;;7.72;6.32;;;18.50;1.00;;;;;;4917892;29;20016;-69
2023/03/13 12:10:08;;;;;;;10.93;7.13;;;18.60;1.00;;;;;;4917289;29;20040;-69
2023/03/13 12:12:46;;;;;;;7.83;6.90;;;18.50;1.00;;;;;;4917824;29;20024;-70
2023/03/13 12:15:37;;;;;;;9.88;6.80;;;18.20;1.00;;;;;;4918221;29;20036;-69
2023/03/13 12:18:08;;;;;;;12.00;7.07;;;17.90;1.00;;;;;;4916788;29;20119;-70
2023/03/13 12:21:00;;;;;;;14.05;6.72;;;17.90;1.00;;;;;;4917879;29;20088;-70
2023/03/13 12:23:38;;;;;;;11.95;7.30;;;18.00;1.00;;;;;;4917955;29;20024;-70
2023/03/13 12:26:21;;;;;;;9.32;6.40;;;18.10;1.00;;;;;;4917606;29;20032;-70
2023/03/13 12:29:05;;;;;;;12.23;7.30;;;18.40;1.00;;;;;;4917682;29;20054;-70
2023/03/13 12:32:08;;;;;;;11.30;6.60;;;19.00;1.00;;;;;;4912118;29;20408;-70
2023/03/13 12:34:41;;;;;;;9.35;6.70;;;19.30;1.00;;;;;;4911278;29;20107;-70
2023/03/13 12:37:35;;;;;;;11.35;6.88;;;19.00;1.00;;;;;;4887710;29;20044;-69
2023/03/13 12:40:24;;;;;;;14.23;7.18;;;18.60;1.00;;;;;;4909964;29;20039;-69
2023/03/13 12:42:54;;;;;;;11.27;7.35;;;18.60;1.00;;;;;;4918054;29;20376;-69
2023/03/13 12:45:23;;;;;;;11.73;6.80;;;18.80;1.00;;;;;;4917055;29;20070;-69
2023/03/13 12:48:40;;;;;;;9.73;6.85;;;19.40;1.00;;;;;;4917613;29;20036;-70
2023/03/13 12:51:21;;;;;;;10.85;7.30;;;19.70;1.00;;;;;;4863318;29;20036;-70
2023/03/13 12:54:14;;;;;;;11.55;6.63;;;20.00;1.00;;;;;;4921506;29;20068;-69
2023/03/13 12:56:58;;;;;;;11.05;6.97;;;19.80;1.00;;;;;;4936374;29;20046;-69
2023/03/13 12:59:31;;;;;;;11.48;6.63;;;19.90;1.00;;;;;;4933245;29;20059;-69
2023/03/13 13:01:58;;;;;;;9.40;6.82;;;19.80;1.00;;;;;;4935478;29;20086;-69
2023/03/13 13:04:31;;;;;;;9.10;6.82;;;19.40;1.00;;;;;;4933472;29;20056;-69
2023/03/13 13:06:58;;;;;;;8.48;6.78;;;19.20;1.00;;;;;;4935615;29;20036;-69
2023/03/13 13:09:25;;;;;;;9.48;6.65;;;19.30;1.00;;;;;;4935376;29;20023;-69
2023/03/13 13:11:54;;;;;;;9.77;6.63;;;19.30;1.00;;;;;;4936137;29;20079;-69